Terminal Aerodrome Forecast
Issued by NWS

Home | Current Version | Previous Version | Text Only | Print | Product List | Glossary On
Versions: 1 2 3 4 5 6 7 8 9 10 11 12 13 14 15 16 17 18 19 20 21 22 23 24 25 26 27 28 29 30 31 32 33
000
FTUS45 KBOI 301232 AAA
TAFTWF
TAF AMD
KTWF 301232Z 3013/0112 20008KT P6SM BKN100
      TEMPO 3013/3015 -SHRA OVC070
     FM301600 27018G28KT P6SM BKN120
     FM010700 23013KT P6SM SKC=

USA.gov is the U.S. government's official web portal to all federal, state and local government web resources and services.